Time;durP1;ratioP1;P1;durP2;ratioP2;P2;SDS_P1;SDS_P2;PMS_P1;PMS_P2;Temp;Humidity;BMP_temperature;BMP_pressure;BME280_temperature;BME280_humidity;BME280_pressure;Samples;Min_cycle;Max_cycle;Signal;HPM_P1;HPM_P2
2023/06/29 00:00:22;;;;;;;;;;;18.40;99.90;;;;;;5109548;28;20365;-76
2023/06/29 00:02:48;;;;;;;;;;;18.40;99.90;;;;;;5083966;28;20006;-77
2023/06/29 00:05:14;;;;;;;;;;;18.40;99.90;;;;;;5107876;28;19919;-76
2023/06/29 00:07:39;;;;;;;;;;;18.40;99.90;;;;;;5096075;28;19920;-76
2023/06/29 00:10:06;;;;;;;;;;;18.50;99.90;;;;;;5117169;27;20011;-77
2023/06/29 00:12:31;;;;;;;;;;;18.40;99.90;;;;;;5112552;27;20370;-75
2023/06/29 00:14:57;;;;;;;;;;;18.40;99.90;;;;;;5113430;28;19965;-77
2023/06/29 00:17:22;;;;;;;;;;;18.50;99.90;;;;;;5110700;28;19923;-76
2023/06/29 00:19:48;;;;;;;;;;;18.40;99.90;;;;;;5097490;28;19924;-76
2023/06/29 00:22:14;;;;;;;;;;;18.50;99.90;;;;;;5116130;28;20014;-76
2023/06/29 00:24:43;;;;;;;;;;;18.40;99.90;;;;;;5086249;28;19971;-77
2023/06/29 00:27:13;;;;;;;;;;;18.40;99.90;;;;;;5128001;27;20398;-77
2023/06/29 00:29:42;;;;;;;;;;;18.40;99.90;;;;;;5115908;27;19927;-77
2023/06/29 00:32:08;;;;;;;;;;;18.40;99.90;;;;;;5066294;28;19927;-76
2023/06/29 00:34:34;;;;;;;;;;;18.40;99.90;;;;;;5108772;28;19943;-76
2023/06/29 00:37:00;;;;;;;;;;;18.40;99.90;;;;;;5092771;28;19920;-76
2023/06/29 00:39:25;;;;;;;;;;;18.40;99.90;;;;;;5110485;28;20388;-76
2023/06/29 00:41:52;;;;;;;;;;;18.40;99.90;;;;;;5111077;27;20280;-77
2023/06/29 00:44:18;;;;;;;;;;;18.40;99.90;;;;;;5113787;28;19926;-76
2023/06/29 00:46:43;;;;;;;;;;;18.40;99.90;;;;;;5122756;27;19924;-77
2023/06/29 00:49:09;;;;;;;;;;;18.40;99.90;;;;;;5095107;28;20258;-76
2023/06/29 00:51:34;;;;;;;;;;;18.40;99.90;;;;;;5095742;28;19965;-76
2023/06/29 00:54:00;;;;;;;;;;;18.40;99.90;;;;;;5087886;28;20473;-77
2023/06/29 00:56:26;;;;;;;;;;;18.40;99.90;;;;;;5114422;28;20380;-77
2023/06/29 00:58:52;;;;;;;;;;;18.40;99.90;;;;;;5115385;28;19920;-75
2023/06/29 01:01:17;;;;;;;;;;;18.40;99.90;;;;;;5087395;28;19927;-76
2023/06/29 01:03:44;;;;;;;;;;;18.40;99.90;;;;;;5109127;28;19973;-76
2023/06/29 01:06:14;;;;;;;;;;;18.40;99.90;;;;;;5083061;28;19972;-76
2023/06/29 01:08:42;;;;;;;;;;;18.40;99.90;;;;;;5089059;28;19920;-76
2023/06/29 01:11:08;;;;;;;;;;;18.40;99.90;;;;;;5098211;28;19963;-76
2023/06/29 01:13:34;;;;;;;;;;;18.40;99.90;;;;;;5088923;28;19927;-76
2023/06/29 01:16:00;;;;;;;;;;;18.40;99.90;;;;;;5101632;28;19920;-76
2023/06/29 01:18:27;;;;;;;;;;;18.40;99.90;;;;;;5104766;28;20315;-77
2023/06/29 01:20:53;;;;;;;;;;;18.40;99.90;;;;;;5108247;28;19930;-76
2023/06/29 01:23:22;;;;;;;;;;;18.40;99.90;;;;;;5109686;28;19916;-76
2023/06/29 01:25:47;;;;;;;;;;;18.40;99.90;;;;;;5098056;28;20394;-75
2023/06/29 01:28:13;;;;;;;;;;;18.40;99.90;;;;;;5106512;28;19923;-75
2023/06/29 01:30:49;;;;;;;;;;;18.40;99.90;;;;;;5112857;28;19972;-76
2023/06/29 01:33:19;;;;;;;;;;;18.40;99.90;;;;;;5101929;28;19923;-75
2023/06/29 01:35:45;;;;;;;;;;;18.40;99.90;;;;;;5118481;28;19932;-76
2023/06/29 01:38:13;;;;;;;;;;;18.40;99.90;;;;;;5118627;27;20331;-75
2023/06/29 01:40:40;;;;;;;;;;;18.40;99.90;;;;;;5082077;28;19989;-75
2023/06/29 01:43:06;;;;;;;;;;;18.40;99.90;;;;;;5098791;28;19920;-76
2023/06/29 01:45:33;;;;;;;;;;;18.30;99.90;;;;;;5090161;28;19966;-76
2023/06/29 01:47:59;;;;;;;;;;;18.30;99.90;;;;;;5080980;28;20386;-75
2023/06/29 01:50:26;;;;;;;;;;;18.30;99.90;;;;;;5098677;28;19943;-76
2023/06/29 01:52:51;;;;;;;;;;;18.40;99.90;;;;;;5085070;28;20370;-75
2023/06/29 01:55:18;;;;;;;;;;;18.30;99.90;;;;;;5127422;27;19927;-76
2023/06/29 01:57:44;;;;;;;;;;;18.30;99.90;;;;;;5108759;27;19920;-76
2023/06/29 02:00:10;;;;;;;;;;;18.40;99.90;;;;;;5109132;27;19943;-76
2023/06/29 02:02:35;;;;;;;;;;;18.30;99.90;;;;;;5097497;28;19992;-76
2023/06/29 02:05:01;;;;;;;;;;;18.30;99.90;;;;;;5098664;27;19920;-76
2023/06/29 02:07:26;;;;;;;;;;;18.40;99.90;;;;;;5094938;28;19926;-77
2023/06/29 02:09:52;;;;;;;;;;;18.40;99.90;;;;;;5085405;28;20002;-76
2023/06/29 02:12:19;;;;;;;;;;;18.30;99.90;;;;;;5082813;28;19920;-76
2023/06/29 02:14:44;;;;;;;;;;;18.30;99.90;;;;;;5108490;28;20285;-76
2023/06/29 02:17:10;;;;;;;;;;;18.40;99.90;;;;;;5126309;27;20117;-77
2023/06/29 02:19:35;;;;;;;;;;;18.30;99.90;;;;;;5111337;28;19927;-76
2023/06/29 02:22:01;;;;;;;;;;;18.30;99.90;;;;;;5089956;28;19955;-75
2023/06/29 02:24:27;;;;;;;;;;;18.30;99.90;;;;;;5119135;28;19931;-75
2023/06/29 02:26:52;;;;;;;;;;;18.30;99.90;;;;;;5102238;28;19961;-76
2023/06/29 02:29:18;;;;;;;;;;;18.30;99.90;;;;;;5098316;28;19927;-76
2023/06/29 02:31:43;;;;;;;;;;;18.40;99.90;;;;;;5118503;28;19930;-77
2023/06/29 02:34:09;;;;;;;;;;;18.40;99.90;;;;;;5097798;28;19920;-76
2023/06/29 02:36:35;;;;;;;;;;;18.30;99.90;;;;;;5097231;28;19920;-77
2023/06/29 02:39:00;;;;;;;;;;;18.40;99.90;;;;;;5113057;28;20384;-76
2023/06/29 02:41:26;;;;;;;;;;;18.30;99.90;;;;;;5114082;28;19920;-76
2023/06/29 02:43:52;;;;;;;;;;;18.40;99.90;;;;;;5097534;28;19935;-76
2023/06/29 02:46:18;;;;;;;;;;;18.30;99.90;;;;;;5104637;28;19920;-76
2023/06/29 02:48:44;;;;;;;;;;;18.40;99.90;;;;;;5096235;28;20363;-75
2023/06/29 02:51:09;;;;;;;;;;;18.30;99.90;;;;;;5087688;28;20015;-76
2023/06/29 02:53:35;;;;;;;;;;;18.30;99.90;;;;;;5098050;28;19931;-76
2023/06/29 02:56:00;;;;;;;;;;;18.40;99.90;;;;;;5110302;28;19927;-77
2023/06/29 02:58:26;;;;;;;;;;;18.30;99.90;;;;;;5072093;28;19927;-76
2023/06/29 03:00:52;;;;;;;;;;;18.30;99.90;;;;;;5098438;28;19919;-75
2023/06/29 03:03:17;;;;;;;;;;;18.30;99.90;;;;;;5120295;28;19919;-76
2023/06/29 03:05:43;;;;;;;;;;;18.30;99.90;;;;;;5103036;28;19947;-76
2023/06/29 03:08:08;;;;;;;;;;;18.30;99.90;;;;;;5109719;28;20377;-76
2023/06/29 03:10:34;;;;;;;;;;;18.40;99.90;;;;;;5115641;27;19972;-76
2023/06/29 03:12:59;;;;;;;;;;;18.30;99.90;;;;;;5116904;28;19927;-76
2023/06/29 03:15:25;;;;;;;;;;;18.30;99.90;;;;;;5062107;28;20425;-76
2023/06/29 03:17:50;;;;;;;;;;;18.30;99.90;;;;;;5098200;28;19920;-76
2023/06/29 03:20:16;;;;;;;;;;;18.40;99.90;;;;;;5136631;27;19977;-76
2023/06/29 03:22:42;;;;;;;;;;;18.30;99.90;;;;;;5134783;27;20027;-76
2023/06/29 03:25:08;;;;;;;;;;;18.30;99.90;;;;;;5100204;27;19927;-75
2023/06/29 03:27:34;;;;;;;;;;;18.30;99.90;;;;;;5117183;27;19919;-76
2023/06/29 03:29:59;;;;;;;;;;;18.30;99.90;;;;;;5113937;28;19920;-75
2023/06/29 03:32:25;;;;;;;;;;;18.30;99.90;;;;;;5108360;27;19926;-76
2023/06/29 03:34:50;;;;;;;;;;;18.30;99.90;;;;;;5106310;27;19920;-75
2023/06/29 03:37:16;;;;;;;;;;;18.30;99.90;;;;;;5113585;27;19946;-76
2023/06/29 03:39:41;;;;;;;;;;;18.30;99.90;;;;;;5098889;28;20314;-75
2023/06/29 03:42:07;;;;;;;;;;;18.40;99.90;;;;;;5130013;27;19963;-75
2023/06/29 03:44:34;;;;;;;;;;;18.30;99.90;;;;;;5095623;28;19978;-76
2023/06/29 03:46:59;;;;;;;;;;;18.30;99.90;;;;;;5102608;28;19920;-76
2023/06/29 03:49:25;;;;;;;;;;;18.30;99.90;;;;;;5078167;28;20289;-76
2023/06/29 03:51:50;;;;;;;;;;;18.40;99.90;;;;;;5079537;28;20293;-76
2023/06/29 03:54:16;;;;;;;;;;;18.40;99.90;;;;;;5100082;28;19920;-77
2023/06/29 03:56:41;;;;;;;;;;;18.40;99.90;;;;;;5087368;28;19981;-78
2023/06/29 03:59:07;;;;;;;;;;;18.40;99.90;;;;;;5098306;28;19920;-77
2023/06/29 04:01:33;;;;;;;;;;;18.40;99.90;;;;;;5104305;28;20427;-76
2023/06/29 04:03:58;;;;;;;;;;;18.40;99.90;;;;;;5083507;28;19920;-76
2023/06/29 04:06:24;;;;;;;;;;;18.40;99.90;;;;;;5099657;27;19928;-75
2023/06/29 04:08:49;;;;;;;;;;;18.40;99.90;;;;;;5096940;28;19928;-75
2023/06/29 04:11:15;;;;;;;;;;;18.40;99.90;;;;;;5095636;28;19920;-77
2023/06/29 04:13:40;;;;;;;;;;;18.50;99.90;;;;;;5108985;28;19927;-76
2023/06/29 04:16:06;;;;;;;;;;;18.50;99.90;;;;;;5102875;27;19919;-76
2023/06/29 04:18:31;;;;;;;;;;;18.50;99.90;;;;;;5089459;28;20382;-75
2023/06/29 04:20:57;;;;;;;;;;;18.50;99.90;;;;;;5096209;28;19924;-76
2023/06/29 04:23:22;;;;;;;;;;;18.50;99.90;;;;;;5096089;28;19931;-76
2023/06/29 04:25:48;;;;;;;;;;;18.50;99.90;;;;;;5093524;28;19920;-77
2023/06/29 04:28:14;;;;;;;;;;;18.60;99.90;;;;;;5077531;28;19920;-76
2023/06/29 04:30:40;;;;;;;;;;;18.50;99.90;;;;;;5080832;28;19920;-77
2023/06/29 04:33:10;;;;;;;;;;;18.60;99.90;;;;;;5080652;28;20377;-76
2023/06/29 04:35:39;;;;;;;;;;;18.60;99.90;;;;;;5105682;28;19920;-76
2023/06/29 04:38:11;;;;;;;;;;;18.60;99.90;;;;;;5116056;28;20301;-76
2023/06/29 04:40:37;;;;;;;;;;;18.60;99.90;;;;;;5099996;28;19920;-76
2023/06/29 04:43:02;;;;;;;;;;;18.70;99.90;;;;;;5105770;27;19976;-76
2023/06/29 04:45:31;;;;;;;;;;;18.70;99.90;;;;;;5104970;28;19919;-76
2023/06/29 04:47:57;;;;;;;;;;;18.70;99.90;;;;;;5106538;28;19975;-76
2023/06/29 04:50:26;;;;;;;;;;;18.80;99.90;;;;;;5095834;28;20288;-76
2023/06/29 04:52:52;;;;;;;;;;;18.80;99.90;;;;;;5095135;28;19920;-76
2023/06/29 04:55:17;;;;;;;;;;;19.00;99.90;;;;;;5108649;28;20315;-76
2023/06/29 04:57:43;;;;;;;;;;;19.00;99.90;;;;;;5089620;28;19973;-76
2023/06/29 05:00:11;;;;;;;;;;;19.00;99.90;;;;;;5110351;28;20317;-77
2023/06/29 05:02:37;;;;;;;;;;;19.10;99.90;;;;;;5103508;28;19920;-76
2023/06/29 05:05:02;;;;;;;;;;;19.10;99.90;;;;;;5099288;28;20026;-76
2023/06/29 05:07:28;;;;;;;;;;;19.20;99.90;;;;;;5113335;28;20383;-76
2023/06/29 05:09:53;;;;;;;;;;;19.20;99.90;;;;;;5096745;28;19920;-77
2023/06/29 05:12:19;;;;;;;;;;;19.30;99.90;;;;;;5095690;28;20291;-76
2023/06/29 05:14:45;;;;;;;;;;;19.30;99.90;;;;;;5112288;28;20019;-76
2023/06/29 05:17:10;;;;;;;;;;;19.30;99.90;;;;;;5106422;28;19977;-76
2023/06/29 05:19:39;;;;;;;;;;;19.20;99.90;;;;;;5095718;28;19919;-77
2023/06/29 05:22:04;;;;;;;;;;;19.20;99.90;;;;;;5102725;28;19926;-76
2023/06/29 05:24:30;;;;;;;;;;;19.30;99.90;;;;;;5113175;28;19920;-78
2023/06/29 05:26:57;;;;;;;;;;;19.30;99.90;;;;;;5103282;28;19920;-77
2023/06/29 05:29:24;;;;;;;;;;;19.30;99.90;;;;;;5102162;28;19923;-76
2023/06/29 05:31:49;;;;;;;;;;;19.30;99.90;;;;;;5108019;28;19927;-77
2023/06/29 05:34:15;;;;;;;;;;;19.40;99.90;;;;;;5108537;28;19919;-77
2023/06/29 05:36:40;;;;;;;;;;;19.40;99.90;;;;;;5086506;28;19970;-78
2023/06/29 05:39:06;;;;;;;;;;;19.40;99.90;;;;;;5107512;28;19919;-76
2023/06/29 05:41:32;;;;;;;;;;;19.40;99.90;;;;;;5112649;28;19943;-78
2023/06/29 05:43:57;;;;;;;;;;;19.50;99.90;;;;;;5106076;28;20002;-76
2023/06/29 05:46:23;;;;;;;;;;;19.50;99.90;;;;;;5113197;28;19984;-77
2023/06/29 05:48:48;;;;;;;;;;;19.50;99.90;;;;;;5114922;28;19927;-78
2023/06/29 05:51:14;;;;;;;;;;;19.60;99.90;;;;;;5103872;28;19920;-78
2023/06/29 05:53:40;;;;;;;;;;;19.60;99.90;;;;;;5105435;28;20015;-77
2023/06/29 05:56:05;;;;;;;;;;;19.60;99.90;;;;;;5099092;28;19979;-77
2023/06/29 05:58:31;;;;;;;;;;;19.70;99.90;;;;;;5079804;28;19942;-76
2023/06/29 06:00:57;;;;;;;;;;;19.70;99.90;;;;;;5092052;28;19973;-77
2023/06/29 06:03:23;;;;;;;;;;;19.80;99.90;;;;;;5109052;28;20294;-77
2023/06/29 06:05:49;;;;;;;;;;;19.90;99.90;;;;;;5080346;28;19928;-78
2023/06/29 06:08:18;;;;;;;;;;;19.90;99.90;;;;;;5113457;28;19920;-78
2023/06/29 06:10:43;;;;;;;;;;;20.00;99.90;;;;;;5087051;28;19924;-77
2023/06/29 06:13:09;;;;;;;;;;;20.10;99.90;;;;;;5090782;28;19920;-77
2023/06/29 06:15:34;;;;;;;;;;;20.10;99.90;;;;;;5129769;27;20361;-76
2023/06/29 06:18:00;;;;;;;;;;;20.20;99.90;;;;;;5088759;28;19977;-76
2023/06/29 06:20:25;;;;;;;;;;;20.30;99.90;;;;;;5107854;28;20081;-77
2023/06/29 06:22:51;;;;;;;;;;;20.30;99.90;;;;;;5110645;28;19915;-77
2023/06/29 06:25:17;;;;;;;;;;;20.40;99.90;;;;;;5113391;27;19919;-76
2023/06/29 06:27:43;;;;;;;;;;;20.30;99.90;;;;;;5116410;28;19929;-77
2023/06/29 06:30:09;;;;;;;;;;;20.30;99.90;;;;;;5106007;28;19920;-76
2023/06/29 06:32:35;;;;;;;;;;;20.40;99.90;;;;;;5101868;28;19920;-77
2023/06/29 06:35:01;;;;;;;;;;;20.40;99.90;;;;;;5116844;27;19923;-77
2023/06/29 06:37:29;;;;;;;;;;;20.40;99.90;;;;;;5139953;27;19919;-78
2023/06/29 06:39:55;;;;;;;;;;;20.40;99.90;;;;;;5128338;27;19919;-78
2023/06/29 06:42:20;;;;;;;;;;;20.50;99.90;;;;;;5122638;27;19987;-77
2023/06/29 06:44:50;;;;;;;;;;;20.50;99.90;;;;;;5120267;27;19923;-77
2023/06/29 06:47:16;;;;;;;;;;;20.50;99.90;;;;;;5106126;28;19977;-78
2023/06/29 06:49:41;;;;;;;;;;;20.50;99.90;;;;;;5118979;28;19980;-78
2023/06/29 06:52:07;;;;;;;;;;;20.50;99.90;;;;;;5110440;28;19934;-76
2023/06/29 06:54:32;;;;;;;;;;;20.50;99.90;;;;;;5097668;28;19924;-77
2023/06/29 06:56:58;;;;;;;;;;;20.50;99.90;;;;;;5098770;28;20010;-77
2023/06/29 06:59:26;;;;;;;;;;;20.60;99.90;;;;;;5102113;27;20292;-77
2023/06/29 07:01:52;;;;;;;;;;;20.70;99.90;;;;;;5103178;28;19919;-78
2023/06/29 07:04:17;;;;;;;;;;;20.80;99.90;;;;;;5118789;28;20262;-76
2023/06/29 07:06:43;;;;;;;;;;;20.70;99.90;;;;;;5084312;28;19920;-77
2023/06/29 07:09:09;;;;;;;;;;;20.80;99.90;;;;;;5107529;28;19904;-77
2023/06/29 07:11:36;;;;;;;;;;;20.80;99.90;;;;;;5107856;28;19931;-77
2023/06/29 07:14:01;;;;;;;;;;;20.80;99.90;;;;;;5098129;28;19924;-77
2023/06/29 07:16:27;;;;;;;;;;;20.80;99.90;;;;;;5118188;27;20399;-77
2023/06/29 07:19:07;;;;;;;;;;;20.80;99.90;;;;;;5097517;28;19972;-77
2023/06/29 07:21:32;;;;;;;;;;;20.80;99.90;;;;;;5104847;28;19924;-78
2023/06/29 07:23:58;;;;;;;;;;;20.80;99.90;;;;;;5065819;28;19923;-76
2023/06/29 07:26:24;;;;;;;;;;;20.80;99.90;;;;;;5093212;28;19924;-77
2023/06/29 07:28:49;;;;;;;;;;;20.80;99.90;;;;;;5112863;28;20296;-77
2023/06/29 07:31:15;;;;;;;;;;;20.90;99.90;;;;;;5103111;28;19919;-77
2023/06/29 07:33:41;;;;;;;;;;;20.90;99.90;;;;;;5082260;28;20014;-76
2023/06/29 07:36:07;;;;;;;;;;;20.90;99.90;;;;;;5098759;28;19920;-77
2023/06/29 07:38:32;;;;;;;;;;;20.90;99.90;;;;;;5098476;28;19950;-77
2023/06/29 07:40:58;;;;;;;;;;;20.90;99.90;;;;;;5080688;28;19920;-80
2023/06/29 07:43:24;;;;;;;;;;;20.80;99.90;;;;;;5085079;28;19927;-77
2023/06/29 07:45:49;;;;;;;;;;;20.80;99.90;;;;;;5110482;28;20404;-77
2023/06/29 07:48:15;;;;;;;;;;;20.80;99.90;;;;;;5113103;28;20311;-76
2023/06/29 07:50:40;;;;;;;;;;;20.80;99.90;;;;;;5104578;28;20376;-77
2023/06/29 07:53:06;;;;;;;;;;;20.80;99.90;;;;;;5113788;28;20403;-76
2023/06/29 07:55:32;;;;;;;;;;;20.80;99.90;;;;;;5114933;28;19920;-78
2023/06/29 07:57:58;;;;;;;;;;;20.80;99.90;;;;;;5119515;27;19982;-78
2023/06/29 08:00:23;;;;;;;;;;;20.80;99.90;;;;;;5098915;28;19998;-77
2023/06/29 08:02:49;;;;;;;;;;;20.70;99.90;;;;;;5101286;28;20377;-77
2023/06/29 08:05:15;;;;;;;;;;;20.80;99.90;;;;;;5101149;28;19965;-77
2023/06/29 08:07:41;;;;;;;;;;;20.70;99.90;;;;;;5107895;27;19919;-78
2023/06/29 08:10:07;;;;;;;;;;;20.70;99.90;;;;;;5141946;27;19926;-76
2023/06/29 08:12:32;;;;;;;;;;;20.70;99.90;;;;;;5136726;27;19924;-76
2023/06/29 08:14:58;;;;;;;;;;;20.60;99.90;;;;;;5107083;28;19924;-77
2023/06/29 08:17:23;;;;;;;;;;;20.70;99.90;;;;;;5102091;28;19926;-76
2023/06/29 08:19:49;;;;;;;;;;;20.70;99.90;;;;;;5100458;28;19943;-77
2023/06/29 08:22:14;;;;;;;;;;;20.70;99.90;;;;;;5100835;28;19923;-77
2023/06/29 08:24:40;;;;;;;;;;;20.80;99.90;;;;;;5106182;27;19919;-76
2023/06/29 08:27:05;;;;;;;;;;;20.90;99.90;;;;;;5121422;28;19920;-76
2023/06/29 08:29:31;;;;;;;;;;;21.00;99.90;;;;;;5111138;27;20300;-77
2023/06/29 08:31:57;;;;;;;;;;;21.10;99.90;;;;;;5068303;28;20289;-77
2023/06/29 08:34:22;;;;;;;;;;;21.20;99.90;;;;;;5110393;28;19920;-78
2023/06/29 08:36:48;;;;;;;;;;;21.30;99.90;;;;;;5080727;28;19975;-79
2023/06/29 08:39:14;;;;;;;;;;;21.40;99.90;;;;;;5079864;28;19923;-77
2023/06/29 08:41:39;;;;;;;;;;;21.50;99.90;;;;;;5105904;27;20296;-78
2023/06/29 08:44:06;;;;;;;;;;;21.70;99.90;;;;;;5106789;28;19919;-79
2023/06/29 08:46:32;;;;;;;;;;;21.70;99.90;;;;;;5098526;28;19959;-79
2023/06/29 08:48:59;;;;;;;;;;;21.80;99.90;;;;;;5094587;28;19942;-78
2023/06/29 08:51:26;;;;;;;;;;;21.90;99.90;;;;;;5102516;28;19926;-78
2023/06/29 08:53:52;;;;;;;;;;;21.90;99.90;;;;;;5089963;28;19920;-79
2023/06/29 08:56:19;;;;;;;;;;;22.00;99.90;;;;;;5126465;28;19926;-76
2023/06/29 08:58:44;;;;;;;;;;;22.10;99.90;;;;;;5118627;27;19919;-77
2023/06/29 09:01:10;;;;;;;;;;;22.10;99.90;;;;;;5123587;28;20281;-78
2023/06/29 09:03:36;;;;;;;;;;;22.20;99.90;;;;;;5099715;28;20006;-76
2023/06/29 09:06:03;;;;;;;;;;;22.30;99.90;;;;;;5114905;28;19904;-77
2023/06/29 09:08:29;;;;;;;;;;;22.30;99.90;;;;;;5111952;28;19926;-76
2023/06/29 09:10:55;;;;;;;;;;;22.30;99.90;;;;;;5112804;28;20353;-78
2023/06/29 09:13:27;;;;;;;;;;;22.20;99.90;;;;;;5112945;28;19927;-78
2023/06/29 09:16:00;;;;;;;;;;;22.20;99.90;;;;;;5106941;28;19920;-77
2023/06/29 09:18:27;;;;;;;;;;;22.10;99.90;;;;;;5105025;28;19904;-77
2023/06/29 09:20:54;;;;;;;;;;;22.10;99.90;;;;;;5091151;28;19924;-76
2023/06/29 09:23:20;;;;;;;;;;;22.10;99.90;;;;;;5116670;28;20384;-77
2023/06/29 09:25:48;;;;;;;;;;;22.00;99.90;;;;;;5100610;28;19989;-77
2023/06/29 09:28:13;;;;;;;;;;;22.00;99.90;;;;;;5118155;28;20635;-77
2023/06/29 09:30:40;;;;;;;;;;;22.00;99.90;;;;;;5104963;28;20002;-77
2023/06/29 09:33:10;;;;;;;;;;;22.00;99.90;;;;;;5121868;28;19983;-78
2023/06/29 09:35:50;;;;;;;;;;;22.00;99.90;;;;;;5117045;28;19923;-77
2023/06/29 09:38:16;;;;;;;;;;;22.10;99.90;;;;;;5129116;28;19920;-78
2023/06/29 09:40:52;;;;;;;;;;;22.10;99.90;;;;;;5093584;28;19928;-80
2023/06/29 09:43:21;;;;;;;;;;;22.10;99.90;;;;;;5109000;28;19920;-77
2023/06/29 09:45:47;;;;;;;;;;;22.00;99.90;;;;;;5114920;28;19926;-77
2023/06/29 09:48:13;;;;;;;;;;;22.00;99.90;;;;;;5110508;28;20010;-78
2023/06/29 09:50:41;;;;;;;;;;;22.00;99.90;;;;;;5113537;28;19951;-77
2023/06/29 09:53:09;;;;;;;;;;;21.90;99.90;;;;;;5112516;28;19920;-77
2023/06/29 09:55:36;;;;;;;;;;;21.80;99.90;;;;;;5115085;28;19986;-79
2023/06/29 09:58:02;;;;;;;;;;;21.80;99.90;;;;;;5116047;28;19983;-78
2023/06/29 10:00:32;;;;;;;;;;;21.80;99.90;;;;;;5110387;28;19911;-77
2023/06/29 10:02:57;;;;;;;;;;;21.80;99.90;;;;;;5107450;28;19975;-78
2023/06/29 10:05:23;;;;;;;;;;;21.90;99.90;;;;;;5106697;28;19923;-78
2023/06/29 10:07:50;;;;;;;;;;;21.90;99.90;;;;;;5127535;27;19920;-78
2023/06/29 10:10:16;;;;;;;;;;;21.90;99.90;;;;;;5128054;28;20016;-77
2023/06/29 10:12:41;;;;;;;;;;;22.00;99.90;;;;;;5125868;28;19920;-78
2023/06/29 10:15:09;;;;;;;;;;;22.00;99.90;;;;;;5121645;28;19919;-76
2023/06/29 10:17:40;;;;;;;;;;;22.00;99.90;;;;;;5089952;28;19927;-78
2023/06/29 10:20:06;;;;;;;;;;;21.90;99.90;;;;;;5127553;28;19944;-76
2023/06/29 10:22:33;;;;;;;;;;;21.90;99.90;;;;;;5121851;28;20293;-76
2023/06/29 10:25:01;;;;;;;;;;;21.80;99.90;;;;;;5133547;27;19920;-77
2023/06/29 10:27:28;;;;;;;;;;;21.80;99.90;;;;;;5127312;28;19920;-78
2023/06/29 10:29:54;;;;;;;;;;;21.70;99.90;;;;;;5119237;28;20010;-77
2023/06/29 10:32:33;;;;;;;;;;;21.70;99.90;;;;;;5103618;28;19970;-77
2023/06/29 10:35:01;;;;;;;;;;;21.70;99.90;;;;;;5119194;27;19920;-78
2023/06/29 10:37:31;;;;;;;;;;;21.60;99.90;;;;;;5113528;28;19919;-78
2023/06/29 10:39:58;;;;;;;;;;;21.60;99.90;;;;;;5109704;28;19904;-77
2023/06/29 10:42:23;;;;;;;;;;;21.50;99.90;;;;;;5106305;28;20010;-78
2023/06/29 10:44:49;;;;;;;;;;;21.50;99.90;;;;;;5115289;28;19927;-78
2023/06/29 10:47:25;;;;;;;;;;;21.40;99.90;;;;;;5130417;28;19925;-78
2023/06/29 10:49:55;;;;;;;;;;;21.30;99.90;;;;;;5113627;28;20014;-79
2023/06/29 10:52:24;;;;;;;;;;;21.30;99.90;;;;;;5102247;28;20392;-77
2023/06/29 10:55:09;;;;;;;;;;;21.20;99.90;;;;;;5088174;28;19945;-77
2023/06/29 10:57:35;;;;;;;;;;;21.20;99.90;;;;;;5105613;28;20380;-79
2023/06/29 11:00:01;;;;;;;;;;;21.20;99.90;;;;;;5088678;27;19920;-80
2023/06/29 11:02:27;;;;;;;;;;;21.20;99.90;;;;;;5102265;28;19974;-77
2023/06/29 11:04:52;;;;;;;;;;;21.30;99.90;;;;;;5109433;28;20112;-77
2023/06/29 11:07:18;;;;;;;;;;;21.40;99.90;;;;;;5109078;28;19993;-77
2023/06/29 11:09:44;;;;;;;;;;;21.40;99.90;;;;;;5112105;28;19928;-76
2023/06/29 11:12:13;;;;;;;;;;;21.50;99.90;;;;;;5112443;28;19920;-79
2023/06/29 11:14:38;;;;;;;;;;;21.60;99.90;;;;;;5106297;28;20361;-78
2023/06/29 11:17:07;;;;;;;;;;;21.70;99.90;;;;;;5109822;27;20014;-79
2023/06/29 11:19:33;;;;;;;;;;;21.80;99.90;;;;;;5113215;28;19928;-79
2023/06/29 11:21:59;;;;;;;;;;;21.80;99.90;;;;;;5100064;28;19942;-78
2023/06/29 11:24:24;;;;;;;;;;;22.00;99.90;;;;;;5104862;28;19948;-79
2023/06/29 11:26:50;;;;;;;;;;;22.00;99.90;;;;;;5124306;28;19927;-77
2023/06/29 11:29:15;;;;;;;;;;;22.10;99.90;;;;;;5110860;28;19920;-76
2023/06/29 11:31:41;;;;;;;;;;;22.10;99.90;;;;;;5104651;28;19934;-78
2023/06/29 11:34:12;;;;;;;;;;;22.10;99.90;;;;;;5096967;27;19926;-77
2023/06/29 11:36:38;;;;;;;;;;;22.10;99.90;;;;;;5120169;28;20277;-77
2023/06/29 11:39:08;;;;;;;;;;;22.10;99.90;;;;;;5116139;28;20316;-79
2023/06/29 11:41:34;;;;;;;;;;;22.10;99.90;;;;;;5123737;28;19930;-78
2023/06/29 11:44:00;;;;;;;;;;;22.10;99.90;;;;;;5103901;28;19919;-77
2023/06/29 11:46:33;;;;;;;;;;;22.00;99.90;;;;;;5088738;28;19999;-77
2023/06/29 11:48:59;;;;;;;;;;;22.00;99.90;;;;;;5115047;27;19974;-78
2023/06/29 11:51:25;;;;;;;;;;;22.00;99.90;;;;;;5116299;28;19920;-77
2023/06/29 11:53:55;;;;;;;;;;;22.00;99.90;;;;;;5086875;28;19919;-77
2023/06/29 11:56:28;;;;;;;;;;;22.10;99.90;;;;;;5119175;28;19919;-77
2023/06/29 11:58:54;;;;;;;;;;;22.30;99.90;;;;;;5113508;28;19920;-78
2023/06/29 12:01:19;;;;;;;;;;;22.40;99.90;;;;;;5118585;28;19919;-77
2023/06/29 12:03:46;;;;;;;;;;;22.50;99.90;;;;;;5120888;28;19967;-80
2023/06/29 12:06:12;;;;;;;;;;;22.60;99.90;;;;;;5112515;27;19934;-76
2023/06/29 12:08:41;;;;;;;;;;;22.60;99.90;;;;;;5132052;27;19920;-78
2023/06/29 12:11:17;;;;;;;;;;;22.60;99.90;;;;;;5094197;28;19927;-76
2023/06/29 12:13:47;;;;;;;;;;;22.60;99.90;;;;;;5115345;28;19931;-78
2023/06/29 12:16:13;;;;;;;;;;;22.60;99.90;;;;;;5094930;28;19923;-78
2023/06/29 12:18:38;;;;;;;;;;;22.60;99.90;;;;;;5090051;28;19920;-79
2023/06/29 12:21:04;;;;;;;;;;;22.60;99.90;;;;;;5111013;28;19965;-77
2023/06/29 12:23:30;;;;;;;;;;;22.60;99.90;;;;;;5102288;28;20010;-78
2023/06/29 12:25:55;;;;;;;;;;;22.80;99.90;;;;;;5107349;28;20434;-78
2023/06/29 12:28:21;;;;;;;;;;;23.10;99.90;;;;;;5106329;28;19987;-80
2023/06/29 12:30:47;;;;;;;;;;;23.40;99.90;;;;;;5102364;28;19927;-77
2023/06/29 12:33:13;;;;;;;;;;;23.80;99.90;;;;;;5116714;28;19924;-78
2023/06/29 12:35:38;;;;;;;;;;;24.20;99.90;;;;;;5115459;28;20281;-77
2023/06/29 12:38:05;;;;;;;;;;;24.60;99.90;;;;;;5120365;28;19927;-77
2023/06/29 12:40:31;;;;;;;;;;;24.90;99.90;;;;;;5118416;28;19920;-79
2023/06/29 12:42:57;;;;;;;;;;;24.90;99.90;;;;;;5089871;28;19920;-78
2023/06/29 12:45:23;;;;;;;;;;;25.00;99.90;;;;;;5084668;28;19919;-78
2023/06/29 12:47:49;;;;;;;;;;;25.20;99.90;;;;;;5110553;28;19920;-76
2023/06/29 12:50:14;;;;;;;;;;;25.30;99.90;;;;;;5087118;28;19959;-79
2023/06/29 12:52:40;;;;;;;;;;;25.40;99.90;;;;;;5118218;28;19920;-79
2023/06/29 12:55:06;;;;;;;;;;;25.40;99.90;;;;;;5116269;28;19919;-77
2023/06/29 12:57:32;;;;;;;;;;;25.30;99.90;;;;;;5103695;28;19920;-78
2023/06/29 12:59:59;;;;;;;;;;;25.20;99.90;;;;;;5099503;28;20069;-77
2023/06/29 13:02:26;;;;;;;;;;;25.10;99.90;;;;;;5103423;28;19919;-78
2023/06/29 13:04:52;;;;;;;;;;;25.10;99.90;;;;;;5087213;28;19941;-77
2023/06/29 13:07:19;;;;;;;;;;;25.00;99.90;;;;;;5114425;28;19920;-78
2023/06/29 13:09:47;;;;;;;;;;;24.90;99.90;;;;;;5102438;28;19923;-78
2023/06/29 13:12:14;;;;;;;;;;;24.80;99.90;;;;;;5102728;28;19971;-79
2023/06/29 13:14:43;;;;;;;;;;;24.70;99.90;;;;;;5128307;28;19940;-77
2023/06/29 13:17:10;;;;;;;;;;;24.80;99.90;;;;;;5127667;28;20022;-76
2023/06/29 13:19:38;;;;;;;;;;;25.00;99.90;;;;;;5114310;28;20018;-77
2023/06/29 13:22:04;;;;;;;;;;;25.10;99.90;;;;;;5114302;28;19924;-76
2023/06/29 13:24:30;;;;;;;;;;;25.20;99.90;;;;;;5082257;28;20362;-76
2023/06/29 13:26:56;;;;;;;;;;;25.20;99.90;;;;;;5129123;27;19919;-77
2023/06/29 13:29:22;;;;;;;;;;;25.20;99.90;;;;;;5127147;27;20018;-79
2023/06/29 13:31:47;;;;;;;;;;;25.10;99.90;;;;;;5108571;28;19945;-78
2023/06/29 13:34:13;;;;;;;;;;;25.00;99.90;;;;;;5116526;27;19931;-79
2023/06/29 13:36:39;;;;;;;;;;;24.90;99.90;;;;;;5127277;27;20004;-78
2023/06/29 13:39:04;;;;;;;;;;;24.90;99.90;;;;;;5101165;28;19946;-76
2023/06/29 13:41:37;;;;;;;;;;;24.70;99.90;;;;;;5107669;28;19919;-78
2023/06/29 13:44:03;;;;;;;;;;;24.60;99.90;;;;;;5125522;28;20380;-77
2023/06/29 13:46:29;;;;;;;;;;;24.40;99.90;;;;;;5104562;28;19980;-79
2023/06/29 13:48:54;;;;;;;;;;;24.00;99.90;;;;;;5125823;27;19919;-77
2023/06/29 13:51:20;;;;;;;;;;;23.80;99.90;;;;;;5123877;28;19927;-75
2023/06/29 13:53:45;;;;;;;;;;;23.60;99.90;;;;;;5112135;28;20003;-76
2023/06/29 13:56:11;;;;;;;;;;;23.40;99.90;;;;;;5088909;28;20280;-77
2023/06/29 13:58:36;;;;;;;;;;;23.20;99.90;;;;;;5122808;28;20404;-78
2023/06/29 14:01:02;;;;;;;;;;;23.20;99.90;;;;;;5122218;28;19979;-78
2023/06/29 14:03:27;;;;;;;;;;;23.10;99.90;;;;;;5122464;28;19973;-76
2023/06/29 14:05:53;;;;;;;;;;;23.10;99.90;;;;;;5123135;27;19924;-75
2023/06/29 14:08:18;;;;;;;;;;;23.00;99.90;;;;;;5122151;28;19920;-79
2023/06/29 14:10:44;;;;;;;;;;;23.00;99.90;;;;;;5102267;28;19985;-76